sensor_id;sensor_type;location;lat;lon;timestamp;pressure;altitude;pressure_sealevel;temperature;humidity
62655;BME280;48717;55.556;37.816;2023-05-01T00:00:56;98518.06;;;5.81;100.00
62655;BME280;48717;55.556;37.816;2023-05-01T00:03:26;98514.56;;;5.83;100.00
62655;BME280;48717;55.556;37.816;2023-05-01T00:06:01;98512.81;;;5.88;100.00
62655;BME280;48717;55.556;37.816;2023-05-01T00:08:30;98498.03;;;5.80;100.00
62655;BME280;48717;55.556;37.816;2023-05-01T00:11:05;98496.25;;;5.79;100.00
62655;BME280;48717;55.556;37.816;2023-05-01T00:13:35;98518.88;;;5.92;100.00
62655;BME280;48717;55.556;37.816;2023-05-01T00:16:10;98507.56;;;5.90;100.00
62655;BME280;48717;55.556;37.816;2023-05-01T00:18:38;98504.09;;;5.88;100.00
62655;BME280;48717;55.556;37.816;2023-05-01T00:21:05;98513.69;;;5.89;100.00
62655;BME280;48717;55.556;37.816;2023-05-01T00:23:32;98521.50;;;5.92;100.00
62655;BME280;48717;55.556;37.816;2023-05-01T00:25:59;98525.00;;;5.96;100.00
62655;BME280;48717;55.556;37.816;2023-05-01T00:28:26;98506.72;;;5.88;100.00
62655;BME280;48717;55.556;37.816;2023-05-01T00:30:54;98499.69;;;5.96;100.00
62655;BME280;48717;55.556;37.816;2023-05-01T00:33:22;98491.00;;;5.94;100.00
62655;BME280;48717;55.556;37.816;2023-05-01T00:35:50;98470.06;;;5.94;100.00
62655;BME280;48717;55.556;37.816;2023-05-01T00:38:18;98478.75;;;5.96;100.00
62655;BME280;48717;55.556;37.816;2023-05-01T00:43:27;98491.00;;;5.94;100.00
62655;BME280;48717;55.556;37.816;2023-05-01T00:49:09;98410.94;;;5.43;100.00
62655;BME280;48717;55.556;37.816;2023-05-01T00:54:35;98417.03;;;5.47;100.00
62655;BME280;48717;55.556;37.816;2023-05-01T00:57:03;98511.91;;;6.07;100.00
62655;BME280;48717;55.556;37.816;2023-05-01T00:59:31;98509.28;;;6.02;100.00
62655;BME280;48717;55.556;37.816;2023-05-01T01:01:58;98496.22;;;5.94;100.00
62655;BME280;48717;55.556;37.816;2023-05-01T01:04:26;98522.34;;;6.13;100.00
62655;BME280;48717;55.556;37.816;2023-05-01T01:07:06;98484.00;;;5.98;100.00
62655;BME280;48717;55.556;37.816;2023-05-01T01:21:30;98450.84;;;5.98;100.00
62655;BME280;48717;55.556;37.816;2023-05-01T01:35:53;98419.50;;;5.83;100.00
62655;BME280;48717;55.556;37.816;2023-05-01T01:38:27;98410.75;;;5.93;100.00
62655;BME280;48717;55.556;37.816;2023-05-01T01:41:00;98397.69;;;5.92;100.00
62655;BME280;48717;55.556;37.816;2023-05-01T01:43:37;98390.75;;;5.83;100.00
62655;BME280;48717;55.556;37.816;2023-05-01T01:46:06;98404.69;;;5.82;100.00
62655;BME280;48717;55.556;37.816;2023-05-01T01:48:37;98433.44;;;5.91;100.00
62655;BME280;48717;55.556;37.816;2023-05-01T01:51:12;98445.63;;;5.92;100.00
62655;BME280;48717;55.556;37.816;2023-05-01T01:53:45;98455.25;;;5.92;100.00
62655;BME280;48717;55.556;37.816;2023-05-01T01:56:17;98404.75;;;5.72;100.00
62655;BME280;48717;55.556;37.816;2023-05-01T01:58:47;98410.78;;;5.87;100.00
62655;BME280;48717;55.556;37.816;2023-05-01T02:01:18;98429.94;;;5.92;100.00
62655;BME280;48717;55.556;37.816;2023-05-01T02:03:48;98397.75;;;5.76;100.00
62655;BME280;48717;55.556;37.816;2023-05-01T02:06:16;98437.81;;;5.84;100.00
62655;BME280;48717;55.556;37.816;2023-05-01T02:08:45;98472.66;;;5.99;100.00
62655;BME280;48717;55.556;37.816;2023-05-01T02:11:14;98478.75;;;6.03;100.00
62655;BME280;48717;55.556;37.816;2023-05-01T02:13:44;98444.78;;;5.93;100.00
62655;BME280;48717;55.556;37.816;2023-05-01T02:16:32;98482.25;;;6.08;100.00
62655;BME280;48717;55.556;37.816;2023-05-01T02:19:02;98488.31;;;6.13;100.00
62655;BME280;48717;55.556;37.816;2023-05-01T02:21:33;98467.41;;;6.02;100.00
62655;BME280;48717;55.556;37.816;2023-05-01T02:24:02;98468.31;;;6.06;100.00
62655;BME280;48717;55.556;37.816;2023-05-01T02:26:37;98487.44;;;6.17;99.63
62655;BME280;48717;55.556;37.816;2023-05-01T02:29:05;98496.16;;;6.19;99.64
62655;BME280;48717;55.556;37.816;2023-05-01T02:31:33;98475.28;;;6.05;98.99
62655;BME280;48717;55.556;37.816;2023-05-01T02:34:01;98486.59;;;6.10;99.20
62655;BME280;48717;55.556;37.816;2023-05-01T02:36:28;98493.56;;;6.11;98.88
62655;BME280;48717;55.556;37.816;2023-05-01T02:38:55;98524.03;;;6.33;98.79
62655;BME280;48717;55.556;37.816;2023-05-01T02:41:24;98506.53;;;6.38;98.50
62655;BME280;48717;55.556;37.816;2023-05-01T02:44:02;98510.00;;;6.42;98.32
62655;BME280;48717;55.556;37.816;2023-05-01T02:46:32;98482.97;;;6.36;98.25
62655;BME280;48717;55.556;37.816;2023-05-01T02:49:02;98504.75;;;6.45;98.01
62655;BME280;48717;55.556;37.816;2023-05-01T02:51:32;98516.91;;;6.53;97.75
62655;BME280;48717;55.556;37.816;2023-05-01T02:54:00;98499.47;;;6.49;97.48
62655;BME280;48717;55.556;37.816;2023-05-01T02:56:30;98509.88;;;6.65;97.32
62655;BME280;48717;55.556;37.816;2023-05-01T02:58:57;98501.13;;;6.64;96.97
62655;BME280;48717;55.556;37.816;2023-05-01T03:01:24;98493.28;;;6.66;95.62
62655;BME280;48717;55.556;37.816;2023-05-01T03:03:52;98474.09;;;6.61;95.99
62655;BME280;48717;55.556;37.816;2023-05-01T03:06:19;98463.69;;;6.51;96.16
62655;BME280;48717;55.556;37.816;2023-05-01T03:08:46;98482.84;;;6.58;95.91
62655;BME280;48717;55.556;37.816;2023-05-01T03:11:13;98474.16;;;6.55;96.23
62655;BME280;48717;55.556;37.816;2023-05-01T03:13:41;98494.13;;;6.71;96.69
62655;BME280;48717;55.556;37.816;2023-05-01T03:16:09;98502.78;;;6.79;96.86
62655;BME280;48717;55.556;37.816;2023-05-01T03:18:36;98510.66;;;6.78;96.14
62655;BME280;48717;55.556;37.816;2023-05-01T03:21:03;98530.72;;;6.81;95.39
62655;BME280;48717;55.556;37.816;2023-05-01T03:23:31;98510.75;;;6.65;95.19
62655;BME280;48717;55.556;37.816;2023-05-01T03:25:58;98532.50;;;6.77;95.38
62655;BME280;48717;55.556;37.816;2023-05-01T03:28:25;98507.22;;;6.71;95.80
62655;BME280;48717;55.556;37.816;2023-05-01T03:30:53;98533.34;;;6.84;95.60
62655;BME280;48717;55.556;37.816;2023-05-01T03:33:23;98522.84;;;6.84;95.68
62655;BME280;48717;55.556;37.816;2023-05-01T03:36:03;98516.69;;;6.91;95.24
62655;BME280;48717;55.556;37.816;2023-05-01T03:38:32;98520.22;;;6.90;94.67
62655;BME280;48717;55.556;37.816;2023-05-01T03:41:08;98524.53;;;6.94;94.57
62655;BME280;48717;55.556;37.816;2023-05-01T03:44:14;98518.41;;;6.97;94.93
62655;BME280;48717;55.556;37.816;2023-05-01T03:46:46;98514.84;;;7.05;94.23
62655;BME280;48717;55.556;37.816;2023-05-01T03:49:19;98521.81;;;7.07;94.64
62655;BME280;48717;55.556;37.816;2023-05-01T03:51:47;98502.66;;;6.98;94.08
62655;BME280;48717;55.556;37.816;2023-05-01T03:54:15;98493.97;;;6.93;93.81
62655;BME280;48717;55.556;37.816;2023-05-01T03:57:01;98506.06;;;7.10;94.21
62655;BME280;48717;55.556;37.816;2023-05-01T03:59:31;98520.84;;;7.20;93.54
62655;BME280;48717;55.556;37.816;2023-05-01T04:01:58;98499.94;;;7.11;93.12
62655;BME280;48717;55.556;37.816;2023-05-01T04:04:27;98497.31;;;7.11;93.84
62655;BME280;48717;55.556;37.816;2023-05-01T04:06:57;98534.72;;;7.31;93.80
62655;BME280;48717;55.556;37.816;2023-05-01T04:09:24;98523.34;;;7.36;93.51
62655;BME280;48717;55.556;37.816;2023-05-01T04:11:52;98513.78;;;7.28;93.27
62655;BME280;48717;55.556;37.816;2023-05-01T04:14:19;98528.50;;;7.42;93.00
62655;BME280;48717;55.556;37.816;2023-05-01T04:16:46;98530.28;;;7.40;92.53
62655;BME280;48717;55.556;37.816;2023-05-01T04:19:13;98504.16;;;7.30;93.33
62655;BME280;48717;55.556;37.816;2023-05-01T04:21:43;98540.63;;;7.55;94.07
62655;BME280;48717;55.556;37.816;2023-05-01T04:24:10;98512.69;;;7.51;92.88
62655;BME280;48717;55.556;37.816;2023-05-01T04:26:41;98510.16;;;7.43;91.69
62655;BME280;48717;55.556;37.816;2023-05-01T04:29:09;98561.59;;;7.58;92.08
62655;BME280;48717;55.556;37.816;2023-05-01T04:31:36;98549.41;;;7.54;91.96
62655;BME280;48717;55.556;37.816;2023-05-01T04:34:03;98528.50;;;7.43;92.41
62655;BME280;48717;55.556;37.816;2023-05-01T04:36:30;98554.63;;;7.57;91.98
62655;BME280;48717;55.556;37.816;2023-05-01T04:38:59;98541.41;;;7.68;92.00
62655;BME280;48717;55.556;37.816;2023-05-01T04:41:27;98541.28;;;7.79;91.63
62655;BME280;48717;55.556;37.816;2023-05-01T04:43:55;98514.28;;;7.68;90.69
62655;BME280;48717;55.556;37.816;2023-05-01T04:46:22;98509.84;;;7.75;90.05
62655;BME280;48717;55.556;37.816;2023-05-01T04:48:50;98520.28;;;7.81;89.89
62655;BME280;48717;55.556;37.816;2023-05-01T04:51:17;98519.44;;;7.77;89.20
62655;BME280;48717;55.556;37.816;2023-05-01T04:53:46;98536.78;;;7.89;89.60
62655;BME280;48717;55.556;37.816;2023-05-01T04:56:23;98549.78;;;8.05;89.67
62655;BME280;48717;55.556;37.816;2023-05-01T04:58:54;98542.78;;;8.05;89.58
62655;BME280;48717;55.556;37.816;2023-05-01T05:01:24;98532.31;;;8.02;88.90
62655;BME280;48717;55.556;37.816;2023-05-01T05:03:51;98549.66;;;8.13;88.09
62655;BME280;48717;55.556;37.816;2023-05-01T05:06:19;98543.69;;;8.01;88.39
62655;BME280;48717;55.556;37.816;2023-05-01T05:08:47;98543.72;;;7.98;88.47
62655;BME280;48717;55.556;37.816;2023-05-01T05:11:18;98534.34;;;7.74;89.85
62655;BME280;48717;55.556;37.816;2023-05-01T05:13:50;98553.63;;;7.69;89.84
62655;BME280;48717;55.556;37.816;2023-05-01T05:16:18;98559.75;;;7.70;90.77
62655;BME280;48717;55.556;37.816;2023-05-01T05:18:45;98552.66;;;7.78;91.42
62655;BME280;48717;55.556;37.816;2023-05-01T05:21:12;98552.59;;;7.86;90.75
62655;BME280;48717;55.556;37.816;2023-05-01T05:23:45;98529.88;;;7.83;90.09
62655;BME280;48717;55.556;37.816;2023-05-01T05:26:13;98542.91;;;7.91;90.15
62655;BME280;48717;55.556;37.816;2023-05-01T05:28:40;98549.88;;;7.97;89.27
62655;BME280;48717;55.556;37.816;2023-05-01T05:31:07;98542.84;;;7.96;89.49
62655;BME280;48717;55.556;37.816;2023-05-01T05:33:35;98559.25;;;8.15;89.08
62655;BME280;48717;55.556;37.816;2023-05-01T05:36:04;98543.47;;;8.20;87.76
62655;BME280;48717;55.556;37.816;2023-05-01T05:38:37;98513.81;;;8.12;87.68
62655;BME280;48717;55.556;37.816;2023-05-01T05:41:06;98526.81;;;8.22;87.37
62655;BME280;48717;55.556;37.816;2023-05-01T05:43:34;98544.13;;;8.39;86.81
62655;BME280;48717;55.556;37.816;2023-05-01T05:46:01;98557.28;;;8.38;86.13
62655;BME280;48717;55.556;37.816;2023-05-01T05:48:31;98576.34;;;8.55;86.51
62655;BME280;48717;55.556;37.816;2023-05-01T05:51:01;98573.56;;;8.66;86.62
62655;BME280;48717;55.556;37.816;2023-05-01T05:53:29;98577.91;;;8.72;85.51
62655;BME280;48717;55.556;37.816;2023-05-01T05:55:57;98579.63;;;8.73;85.05
62655;BME280;48717;55.556;37.816;2023-05-01T05:58:25;98538.56;;;8.62;85.90
62655;BME280;48717;55.556;37.816;2023-05-01T06:00:52;98573.31;;;8.86;84.45
62655;BME280;48717;55.556;37.816;2023-05-01T06:03:21;98544.66;;;8.68;84.37
62655;BME280;48717;55.556;37.816;2023-05-01T06:05:52;98546.28;;;8.75;83.75
62655;BME280;48717;55.556;37.816;2023-05-01T06:08:19;98579.31;;;8.95;83.05
62655;BME280;48717;55.556;37.816;2023-05-01T06:10:47;98528.19;;;8.55;82.77
62655;BME280;48717;55.556;37.816;2023-05-01T06:13:14;98575.75;;;8.99;83.56
62655;BME280;48717;55.556;37.816;2023-05-01T06:15:44;98569.66;;;8.95;82.69
62655;BME280;48717;55.556;37.816;2023-05-01T06:18:12;98578.13;;;9.16;82.36
62655;BME280;48717;55.556;37.816;2023-05-01T06:20:39;98525.09;;;8.87;82.04
62655;BME280;48717;55.556;37.816;2023-05-01T06:23:07;98555.50;;;9.06;82.08
62655;BME280;48717;55.556;37.816;2023-05-01T06:25:56;98539.13;;;8.86;81.09
62655;BME280;48717;55.556;37.816;2023-05-01T06:28:23;98556.44;;;9.03;81.32
62655;BME280;48717;55.556;37.816;2023-05-01T06:30:50;98576.44;;;9.10;80.67
62655;BME280;48717;55.556;37.816;2023-05-01T06:33:18;98590.53;;;9.06;80.90
62655;BME280;48717;55.556;37.816;2023-05-01T06:35:56;98584.38;;;9.07;80.00
62655;BME280;48717;55.556;37.816;2023-05-01T06:38:26;98604.31;;;9.22;80.59
62655;BME280;48717;55.556;37.816;2023-05-01T06:40:53;98588.75;;;9.10;79.78
62655;BME280;48717;55.556;37.816;2023-05-01T06:43:20;98613.72;;;9.40;79.73
62655;BME280;48717;55.556;37.816;2023-05-01T06:45:47;98613.75;;;9.37;78.89
62655;BME280;48717;55.556;37.816;2023-05-01T06:48:15;98621.53;;;9.45;79.03
62655;BME280;48717;55.556;37.816;2023-05-01T06:50:42;98608.28;;;9.50;78.85
62655;BME280;48717;55.556;37.816;2023-05-01T06:53:09;98617.50;;;9.77;77.89
62655;BME280;48717;55.556;37.816;2023-05-01T06:55:36;98622.56;;;9.90;77.33
62655;BME280;48717;55.556;37.816;2023-05-01T06:58:04;98630.34;;;9.95;74.77
62655;BME280;48717;55.556;37.816;2023-05-01T07:00:48;98634.16;;;9.78;74.04
62655;BME280;48717;55.556;37.816;2023-05-01T07:03:15;98620.16;;;9.76;74.12
62655;BME280;48717;55.556;37.816;2023-05-01T07:05:43;98622.94;;;9.66;74.06
62655;BME280;48717;55.556;37.816;2023-05-01T07:08:10;98601.16;;;9.58;73.44
62655;BME280;48717;55.556;37.816;2023-05-01T07:10:38;98642.63;;;9.96;74.18
62655;BME280;48717;55.556;37.816;2023-05-01T07:13:08;98661.63;;;10.13;72.80
62655;BME280;48717;55.556;37.816;2023-05-01T07:15:35;98626.72;;;10.02;72.51
62655;BME280;48717;55.556;37.816;2023-05-01T07:18:03;98631.59;;;10.24;72.69
62655;BME280;48717;55.556;37.816;2023-05-01T07:20:33;98589.63;;;10.14;72.34
62655;BME280;48717;55.556;37.816;2023-05-01T07:23:01;98595.53;;;10.27;69.70
62655;BME280;48717;55.556;37.816;2023-05-01T07:25:30;98632.72;;;10.59;69.93
62655;BME280;48717;55.556;37.816;2023-05-01T07:27:58;98667.81;;;10.61;67.38
62655;BME280;48717;55.556;37.816;2023-05-01T07:30:27;98640.88;;;10.43;69.32
62655;BME280;48717;55.556;37.816;2023-05-01T07:32:56;98666.09;;;10.60;68.14
62655;BME280;48717;55.556;37.816;2023-05-01T07:35:23;98650.50;;;10.48;68.01
62655;BME280;48717;55.556;37.816;2023-05-01T07:37:51;98678.50;;;10.55;68.00
62655;BME280;48717;55.556;37.816;2023-05-01T07:40:18;98662.72;;;10.52;67.99
62655;BME280;48717;55.556;37.816;2023-05-01T07:42:46;98692.03;;;10.82;67.95
62655;BME280;48717;55.556;37.816;2023-05-01T07:45:13;98681.28;;;10.91;66.71
62655;BME280;48717;55.556;37.816;2023-05-01T07:47:41;98687.06;;;11.09;66.10
62655;BME280;48717;55.556;37.816;2023-05-01T07:50:09;98691.03;;;11.29;65.72
62655;BME280;48717;55.556;37.816;2023-05-01T07:52:38;98680.41;;;11.32;64.41
62655;BME280;48717;55.556;37.816;2023-05-01T07:55:06;98668.25;;;11.25;63.48
62655;BME280;48717;55.556;37.816;2023-05-01T07:57:34;98664.84;;;11.19;63.28
62655;BME280;48717;55.556;37.816;2023-05-01T08:00:02;98697.91;;;11.36;63.30
62655;BME280;48717;55.556;37.816;2023-05-01T08:02:39;98687.16;;;11.45;62.91
62655;BME280;48717;55.556;37.816;2023-05-01T08:05:07;98694.41;;;11.73;62.89
62655;BME280;48717;55.556;37.816;2023-05-01T08:07:35;98708.69;;;12.02;62.77
62655;BME280;48717;55.556;37.816;2023-05-01T08:10:02;98707.44;;;12.19;60.24
62655;BME280;48717;55.556;37.816;2023-05-01T08:12:30;98680.88;;;12.24;59.45
62655;BME280;48717;55.556;37.816;2023-05-01T08:14:57;98676.25;;;12.32;58.74
62655;BME280;48717;55.556;37.816;2023-05-01T08:17:24;98699.66;;;12.48;58.34
62655;BME280;48717;55.556;37.816;2023-05-01T08:19:52;98705.72;;;12.51;59.11
62655;BME280;48717;55.556;37.816;2023-05-01T08:22:23;98714.72;;;12.44;58.83
62655;BME280;48717;55.556;37.816;2023-05-01T08:24:50;98692.41;;;12.21;59.49
62655;BME280;48717;55.556;37.816;2023-05-01T08:27:17;98712.22;;;12.39;58.57
62655;BME280;48717;55.556;37.816;2023-05-01T08:29:45;98670.31;;;11.87;57.50
62655;BME280;48717;55.556;37.816;2023-05-01T08:32:13;98708.72;;;11.65;58.42
62655;BME280;48717;55.556;37.816;2023-05-01T08:34:40;98670.38;;;11.07;59.53
62655;BME280;48717;55.556;37.816;2023-05-01T08:37:08;98743.50;;;11.44;59.56
62655;BME280;48717;55.556;37.816;2023-05-01T08:39:35;98738.91;;;11.53;61.49
62655;BME280;48717;55.556;37.816;2023-05-01T08:42:02;98738.41;;;11.76;60.60
62655;BME280;48717;55.556;37.816;2023-05-01T08:44:30;98743.03;;;12.02;58.36
62655;BME280;48717;55.556;37.816;2023-05-01T08:47:10;98741.94;;;12.13;56.96
62655;BME280;48717;55.556;37.816;2023-05-01T08:49:41;98743.47;;;12.23;57.05
62655;BME280;48717;55.556;37.816;2023-05-01T08:52:12;98740.22;;;12.12;56.45
62655;BME280;48717;55.556;37.816;2023-05-01T08:54:44;98755.81;;;12.21;56.53
62655;BME280;48717;55.556;37.816;2023-05-01T08:57:13;98757.44;;;12.29;56.01
62655;BME280;48717;55.556;37.816;2023-05-01T08:59:41;98759.69;;;12.08;55.34
62655;BME280;48717;55.556;37.816;2023-05-01T09:02:09;98763.94;;;12.13;56.10
62655;BME280;48717;55.556;37.816;2023-05-01T09:04:38;98760.38;;;12.16;56.19
62655;BME280;48717;55.556;37.816;2023-05-01T09:07:07;98763.78;;;12.20;56.38
62655;BME280;48717;55.556;37.816;2023-05-01T09:09:35;98769.06;;;12.20;56.55
62655;BME280;48717;55.556;37.816;2023-05-01T09:14:43;98772.97;;;12.41;56.34
62655;BME280;48717;55.556;37.816;2023-05-01T09:17:12;98777.25;;;12.47;57.12
62655;BME280;48717;55.556;37.816;2023-05-01T09:19:39;98760.72;;;12.38;55.42
62655;BME280;48717;55.556;37.816;2023-05-01T09:22:08;98771.22;;;12.40;56.72
62655;BME280;48717;55.556;37.816;2023-05-01T09:24:35;98760.03;;;12.30;56.64
62655;BME280;48717;55.556;37.816;2023-05-01T09:27:02;98750.09;;;12.02;57.09
62655;BME280;48717;55.556;37.816;2023-05-01T09:29:42;98776.00;;;11.86;56.95
62655;BME280;48717;55.556;37.816;2023-05-01T09:34:48;98799.31;;;12.08;56.56
62655;BME280;48717;55.556;37.816;2023-05-01T09:37:33;98777.19;;;12.12;54.85
62655;BME280;48717;55.556;37.816;2023-05-01T09:40:10;98777.06;;;12.18;54.65
62655;BME280;48717;55.556;37.816;2023-05-01T09:42:49;98778.22;;;12.06;54.65
62655;BME280;48717;55.556;37.816;2023-05-01T09:45:22;98791.50;;;12.01;55.02
62655;BME280;48717;55.556;37.816;2023-05-01T09:47:50;98766.28;;;11.88;55.33
62655;BME280;48717;55.556;37.816;2023-05-01T09:50:33;98787.53;;;11.82;55.85
62655;BME280;48717;55.556;37.816;2023-05-01T09:53:03;98790.44;;;12.10;55.79
62655;BME280;48717;55.556;37.816;2023-05-01T09:55:33;98775.41;;;12.49;54.64
62655;BME280;48717;55.556;37.816;2023-05-01T09:58:00;98782.38;;;12.86;54.09
62655;BME280;48717;55.556;37.816;2023-05-01T10:00:28;98784.69;;;13.30;53.95
62655;BME280;48717;55.556;37.816;2023-05-01T10:02:56;98790.31;;;13.51;51.02
62655;BME280;48717;55.556;37.816;2023-05-01T10:05:23;98804.00;;;13.66;50.82
62655;BME280;48717;55.556;37.816;2023-05-01T10:08:08;98808.75;;;13.84;50.02
62655;BME280;48717;55.556;37.816;2023-05-01T10:10:41;98805.53;;;13.73;51.12
62655;BME280;48717;55.556;37.816;2023-05-01T10:13:14;98807.34;;;13.41;51.39
62655;BME280;48717;55.556;37.816;2023-05-01T10:15:43;98799.44;;;13.08;51.38
62655;BME280;48717;55.556;37.816;2023-05-01T10:18:11;98812.84;;;13.01;51.45
62655;BME280;48717;55.556;37.816;2023-05-01T10:20:40;98808.00;;;12.84;52.26
62655;BME280;48717;55.556;37.816;2023-05-01T10:23:07;98817.03;;;12.75;52.45
62655;BME280;48717;55.556;37.816;2023-05-01T10:25:35;98785.13;;;12.48;52.26
62655;BME280;48717;55.556;37.816;2023-05-01T10:28:04;98805.88;;;12.29;52.49
62655;BME280;48717;55.556;37.816;2023-05-01T10:30:32;98820.47;;;12.44;53.69
62655;BME280;48717;55.556;37.816;2023-05-01T10:33:01;98823.47;;;12.65;53.05
62655;BME280;48717;55.556;37.816;2023-05-01T10:35:34;98828.03;;;12.60;52.73
62655;BME280;48717;55.556;37.816;2023-05-01T10:38:06;98813.47;;;12.42;52.40
62655;BME280;48717;55.556;37.816;2023-05-01T10:43:29;98828.44;;;12.05;52.05
62655;BME280;48717;55.556;37.816;2023-05-01T10:51:17;98847.78;;;11.64;55.73
62655;BME280;48717;55.556;37.816;2023-05-01T10:53:48;98864.78;;;11.51;57.07
62655;BME280;48717;55.556;37.816;2023-05-01T11:01:41;98876.84;;;10.66;61.42
62655;BME280;48717;55.556;37.816;2023-05-01T11:09:48;98891.91;;;9.97;64.69
62655;BME280;48717;55.556;37.816;2023-05-01T11:12:56;98902.66;;;9.78;65.71
62655;BME280;48717;55.556;37.816;2023-05-01T11:15:31;98913.28;;;9.72;65.95
62655;BME280;48717;55.556;37.816;2023-05-01T11:18:01;98911.66;;;9.61;66.65
62655;BME280;48717;55.556;37.816;2023-05-01T11:23:04;98923.25;;;9.45;67.36
62655;BME280;48717;55.556;37.816;2023-05-01T11:25:32;98921.53;;;9.39;66.74
62655;BME280;48717;55.556;37.816;2023-05-01T11:28:01;98938.22;;;9.39;67.68
62655;BME280;48717;55.556;37.816;2023-05-01T11:30:36;98940.03;;;9.34;67.38
62655;BME280;48717;55.556;37.816;2023-05-01T11:33:04;98909.50;;;9.18;68.11
62655;BME280;48717;55.556;37.816;2023-05-01T11:35:35;98902.78;;;8.84;67.62
62655;BME280;48717;55.556;37.816;2023-05-01T11:38:02;98945.69;;;8.86;68.24
62655;BME280;48717;55.556;37.816;2023-05-01T11:40:32;98975.50;;;8.83;69.46
62655;BME280;48717;55.556;37.816;2023-05-01T11:43:05;98892.50;;;8.49;69.83
62655;BME280;48717;55.556;37.816;2023-05-01T11:45:35;98900.41;;;8.54;68.92
62655;BME280;48717;55.556;37.816;2023-05-01T11:48:13;98931.72;;;8.82;68.54
62655;BME280;48717;55.556;37.816;2023-05-01T11:50:42;98896.13;;;8.34;68.99
62655;BME280;48717;55.556;37.816;2023-05-01T11:53:12;98984.31;;;8.79;68.57
62655;BME280;48717;55.556;37.816;2023-05-01T11:55:42;98979.97;;;8.73;68.42
62655;BME280;48717;55.556;37.816;2023-05-01T11:58:10;99011.47;;;8.80;69.22
62655;BME280;48717;55.556;37.816;2023-05-01T12:00:39;98984.44;;;8.64;69.98
62655;BME280;48717;55.556;37.816;2023-05-01T12:03:12;99011.50;;;8.75;69.81
62655;BME280;48717;55.556;37.816;2023-05-01T12:05:43;98996.75;;;8.47;69.86
62655;BME280;48717;55.556;37.816;2023-05-01T12:08:14;99019.53;;;8.41;70.69
62655;BME280;48717;55.556;37.816;2023-05-01T12:10:47;98904.41;;;7.53;70.95
62655;BME280;48717;55.556;37.816;2023-05-01T12:13:15;98964.66;;;7.78;71.61
62655;BME280;48717;55.556;37.816;2023-05-01T12:15:44;98976.97;;;7.70;72.00
62655;BME280;48717;55.556;37.816;2023-05-01T12:18:13;99022.34;;;8.00;71.18
62655;BME280;48717;55.556;37.816;2023-05-01T12:20:46;98979.59;;;7.57;69.98
62655;BME280;48717;55.556;37.816;2023-05-01T12:23:14;98934.22;;;7.04;69.23
62655;BME280;48717;55.556;37.816;2023-05-01T12:25:43;99049.56;;;7.58;69.89
62655;BME280;48717;55.556;37.816;2023-05-01T12:28:12;99054.81;;;7.52;71.23
62655;BME280;48717;55.556;37.816;2023-05-01T12:30:41;99025.09;;;7.25;71.48
62655;BME280;48717;55.556;37.816;2023-05-01T12:33:14;99035.56;;;7.07;70.86
62655;BME280;48717;55.556;37.816;2023-05-01T12:35:43;99064.44;;;7.24;71.70
62655;BME280;48717;55.556;37.816;2023-05-01T12:38:18;99065.28;;;7.15;72.38
62655;BME280;48717;55.556;37.816;2023-05-01T12:40:51;99058.31;;;7.03;73.01
62655;BME280;48717;55.556;37.816;2023-05-01T12:43:20;99072.28;;;7.07;73.32
62655;BME280;48717;55.556;37.816;2023-05-01T12:45:52;99010.19;;;6.70;73.19
62655;BME280;48717;55.556;37.816;2023-05-01T12:48:20;99093.25;;;7.00;73.95
62655;BME280;48717;55.556;37.816;2023-05-01T12:50:48;99103.72;;;7.00;74.33
62655;BME280;48717;55.556;37.816;2023-05-01T12:53:22;99011.03;;;6.47;75.48
62655;BME280;48717;55.556;37.816;2023-05-01T12:55:51;99095.81;;;6.75;75.41
62655;BME280;48717;55.556;37.816;2023-05-01T12:58:19;99105.41;;;6.79;76.89
62655;BME280;48717;55.556;37.816;2023-05-01T13:00:52;99069.53;;;6.50;77.60
62655;BME280;48717;55.556;37.816;2023-05-01T13:03:24;99112.41;;;6.84;77.41
62655;BME280;48717;55.556;37.816;2023-05-01T13:06:00;99075.69;;;6.62;77.02
62655;BME280;48717;55.556;37.816;2023-05-01T13:08:32;99066.91;;;6.47;76.37
62655;BME280;48717;55.556;37.816;2023-05-01T13:11:02;99117.63;;;6.71;76.66
62655;BME280;48717;55.556;37.816;2023-05-01T13:13:35;99129.88;;;6.78;76.84
62655;BME280;48717;55.556;37.816;2023-05-01T13:16:13;99133.34;;;6.71;76.06
62655;BME280;48717;55.556;37.816;2023-05-01T13:18:44;99107.91;;;6.40;74.65
62655;BME280;48717;55.556;37.816;2023-05-01T13:21:13;99141.97;;;6.48;75.67
62655;BME280;48717;55.556;37.816;2023-05-01T13:23:57;99124.44;;;6.29;75.60
62655;BME280;48717;55.556;37.816;2023-05-01T13:26:32;99105.06;;;6.01;75.96
62655;BME280;48717;55.556;37.816;2023-05-01T13:29:03;99117.25;;;5.99;75.45
62655;BME280;48717;55.556;37.816;2023-05-01T13:31:31;99142.59;;;6.04;76.31
62655;BME280;48717;55.556;37.816;2023-05-01T13:34:03;99096.19;;;5.78;76.89
62655;BME280;48717;55.556;37.816;2023-05-01T13:36:57;99155.78;;;6.16;77.13
62655;BME280;48717;55.556;37.816;2023-05-01T13:40:04;99183.75;;;6.23;78.80
62655;BME280;48717;55.556;37.816;2023-05-01T13:42:32;99182.06;;;6.30;79.48
62655;BME280;48717;55.556;37.816;2023-05-01T13:44:59;99155.63;;;5.97;77.49
62655;BME280;48717;55.556;37.816;2023-05-01T13:47:29;99139.00;;;5.94;78.01
62655;BME280;48717;55.556;37.816;2023-05-01T13:49:58;99094.31;;;5.61;77.74
62655;BME280;48717;55.556;37.816;2023-05-01T13:52:29;99192.44;;;6.16;78.29
62655;BME280;48717;55.556;37.816;2023-05-01T13:54:57;99118.81;;;5.72;79.06
62655;BME280;48717;55.556;37.816;2023-05-01T13:57:30;99152.09;;;5.92;78.87
62655;BME280;48717;55.556;37.816;2023-05-01T13:59:57;99163.56;;;6.07;78.91
62655;BME280;48717;55.556;37.816;2023-05-01T14:02:27;99206.53;;;6.37;78.47
62655;BME280;48717;55.556;37.816;2023-05-01T14:04:55;99214.41;;;6.42;79.08
62655;BME280;48717;55.556;37.816;2023-05-01T14:07:26;99193.38;;;6.31;79.17
62655;BME280;48717;55.556;37.816;2023-05-01T14:09:55;99176.75;;;6.19;79.45